Time;durP1;ratioP1;P1;durP2;ratioP2;P2;SDS_P1;SDS_P2;PMS_P1;PMS_P2;Temp;Humidity;BMP_temperature;BMP_pressure;BME280_temperature;BME280_humidity;BME280_pressure;Samples;Min_cycle;Max_cycle;Signal;HPM_P1;HPM_P2
2022/01/04 04:00:37;;;;;;;45.65;15.82;;;8.10;99.90;;;;;;6096444;22;20035;31
2022/01/04 04:03:02;;;;;;;49.47;16.67;;;8.10;99.90;;;;;;4933581;29;20460;-77
2022/01/04 04:05:28;;;;;;;44.47;16.13;;;8.00;99.90;;;;;;4935655;29;20039;-77
2022/01/04 04:07:53;;;;;;;43.53;15.45;;;8.00;99.90;;;;;;4935602;29;20047;-77
2022/01/04 04:10:19;;;;;;;47.78;16.65;;;8.00;99.90;;;;;;4934336;29;20047;-77
2022/01/04 04:12:45;;;;;;;45.70;16.25;;;8.00;99.90;;;;;;4918071;29;20087;-77
2022/01/04 04:15:11;;;;;;;51.72;16.90;;;8.00;99.90;;;;;;4916741;29;20044;-79
2022/01/04 04:17:37;;;;;;;45.53;16.05;;;8.00;99.90;;;;;;4916427;29;20493;-79
2022/01/04 04:20:04;;;;;;;41.30;16.05;;;8.00;99.90;;;;;;4932376;29;20048;-78
2022/01/04 04:22:31;;;;;;;48.90;15.73;;;8.00;99.90;;;;;;4932310;29;20397;-78
2022/01/04 04:24:57;;;;;;;43.60;15.85;;;8.00;99.90;;;;;;4932219;29;20480;-79
2022/01/04 04:27:23;;;;;;;45.65;16.70;;;8.00;99.90;;;;;;4916430;29;20068;-76
2022/01/04 04:29:48;;;;;;;50.42;16.20;;;8.10;99.90;;;;;;4916556;29;20059;-78
2022/01/04 04:32:14;;;;;;;43.38;16.63;;;8.10;99.90;;;;;;4916206;29;20059;-78
2022/01/04 04:34:40;;;;;;;49.22;16.60;;;8.00;99.90;;;;;;4916247;29;20082;-77
2022/01/04 04:37:05;;;;;;;54.30;17.25;;;8.00;99.90;;;;;;4917569;29;20059;-78
2022/01/04 04:39:31;;;;;;;44.53;17.17;;;8.00;99.90;;;;;;4916138;29;20040;-78
2022/01/04 04:41:57;;;;;;;47.90;15.73;;;8.00;99.90;;;;;;4915951;29;20050;-78
2022/01/04 04:44:22;;;;;;;45.45;15.25;;;8.00;99.90;;;;;;4915637;29;20494;-77
2022/01/04 04:46:49;;;;;;;49.42;16.10;;;8.10;99.90;;;;;;4916195;29;20048;-78
2022/01/04 04:49:15;;;;;;;45.22;15.82;;;8.00;99.90;;;;;;4916074;29;20044;-77
2022/01/04 04:51:42;;;;;;;43.05;14.80;;;8.00;99.90;;;;;;4916183;29;20048;-77
2022/01/04 04:54:07;;;;;;;41.22;15.13;;;8.10;99.90;;;;;;4932046;29;20377;-78
2022/01/04 04:56:34;;;;;;;48.83;14.93;;;8.10;99.90;;;;;;4931850;29;20051;-77
2022/01/04 04:59:00;;;;;;;48.53;15.05;;;8.10;99.90;;;;;;4915890;29;20049;-78
2022/01/04 05:01:26;;;;;;;43.53;15.93;;;8.10;99.90;;;;;;4915685;29;20051;-78
2022/01/04 05:03:52;;;;;;;45.10;17.15;;;8.10;99.90;;;;;;4916618;29;20083;-77
2022/01/04 05:06:18;;;;;;;49.92;16.30;;;8.10;99.90;;;;;;4915764;29;20048;-78
2022/01/04 05:08:44;;;;;;;46.00;16.52;;;8.10;99.90;;;;;;4916007;29;20052;-77
2022/01/04 05:11:10;;;;;;;42.75;15.98;;;8.10;99.90;;;;;;4931851;29;20374;-77
2022/01/04 05:13:35;;;;;;;48.50;17.30;;;8.10;99.90;;;;;;4915948;29;20044;-77
2022/01/04 05:16:01;;;;;;;36.75;14.57;;;8.10;99.90;;;;;;4915905;29;20488;-78
2022/01/04 05:18:26;;;;;;;46.20;17.20;;;8.10;99.90;;;;;;4915758;29;20050;-78
2022/01/04 05:20:52;;;;;;;45.72;16.23;;;8.10;99.90;;;;;;4917074;29;20400;-77
2022/01/04 05:23:18;;;;;;;36.83;16.15;;;8.10;99.90;;;;;;4916855;29;20039;-79
2022/01/04 05:25:43;;;;;;;49.92;15.77;;;8.10;99.90;;;;;;4915578;29;20044;-77
2022/01/04 05:28:09;;;;;;;43.50;15.93;;;8.10;99.90;;;;;;4917149;29;20044;-78
2022/01/04 05:30:35;;;;;;;40.58;15.43;;;8.10;99.90;;;;;;4915651;29;20040;-79
2022/01/04 05:33:01;;;;;;;39.90;16.20;;;8.00;99.90;;;;;;4915846;29;20396;-77
2022/01/04 05:35:27;;;;;;;44.00;15.18;;;8.10;99.90;;;;;;4915457;29;20055;-77
2022/01/04 05:37:54;;;;;;;44.55;16.80;;;8.00;99.90;;;;;;4915435;29;20051;-76
2022/01/04 05:40:19;;;;;;;44.20;14.30;;;8.00;99.90;;;;;;4931216;29;20048;-78
2022/01/04 05:42:45;;;;;;;41.45;14.88;;;8.00;99.90;;;;;;4915423;29;20076;-77
2022/01/04 05:45:11;;;;;;;44.88;15.43;;;8.00;99.90;;;;;;4916717;29;20044;-78
2022/01/04 05:47:36;;;;;;;54.85;17.27;;;8.10;99.90;;;;;;4916639;29;20067;-78
2022/01/04 05:50:05;;;;;;;44.55;15.18;;;8.00;99.90;;;;;;4916574;29;20040;-79
2022/01/04 05:52:32;;;;;;;43.58;15.15;;;8.00;99.90;;;;;;4899873;29;20389;-77
2022/01/04 05:54:57;;;;;;;46.63;14.55;;;8.00;99.90;;;;;;4916327;29;20120;-77
2022/01/04 05:57:23;;;;;;;38.80;14.50;;;8.00;99.90;;;;;;4918926;29;20555;-78
2022/01/04 05:59:48;;;;;;;40.55;13.68;;;7.90;99.90;;;;;;4918754;29;20079;-78
2022/01/04 06:02:14;;;;;;;35.10;12.93;;;8.00;99.90;;;;;;4918756;29;20508;-78
2022/01/04 06:04:40;;;;;;;34.00;11.77;;;8.00;99.90;;;;;;4903112;29;20484;-78
2022/01/04 06:07:05;;;;;;;29.75;12.07;;;7.90;99.90;;;;;;4934798;29;20204;-78
2022/01/04 06:09:40;;;;;;;32.83;11.43;;;7.90;99.90;;;;;;4918654;29;20051;-78
2022/01/04 06:14:50;;;;;;;31.05;10.52;;;7.90;99.90;;;;;;4918778;29;20051;-77
2022/01/04 06:15:03;;;;;;;29.52;9.57;;;7.90;99.90;;;;;;4918588;29;20054;-78
2022/01/04 06:17:35;;;;;;;30.77;9.75;;;7.90;99.90;;;;;;4918418;29;20051;-78
2022/01/04 06:20:03;;;;;;;31.52;8.50;;;7.90;99.90;;;;;;4918372;29;20089;-77
2022/01/04 06:22:29;;;;;;;29.42;9.40;;;7.90;99.90;;;;;;4918469;29;20044;-79
2022/01/04 06:24:56;;;;;;;36.95;9.75;;;7.90;99.90;;;;;;4918450;29;20139;-77
2022/01/04 06:27:22;;;;;;;27.15;9.65;;;7.80;99.90;;;;;;4918365;29;20052;-78
2022/01/04 06:29:48;;;;;;;26.27;9.65;;;7.80;99.90;;;;;;4918306;29;20085;-77
2022/01/04 06:32:14;;;;;;;32.72;10.18;;;7.80;99.90;;;;;;4902517;29;20051;-78
2022/01/04 06:34:42;;;;;;;27.40;10.52;;;7.80;99.90;;;;;;4934482;29;20048;-78
2022/01/04 06:37:08;;;;;;;34.03;11.73;;;7.80;99.90;;;;;;4934047;29;20040;-79
2022/01/04 06:39:34;;;;;;;25.58;11.00;;;7.80;99.90;;;;;;4934101;29;20054;-78
2022/01/04 06:42:00;;;;;;;33.67;11.15;;;7.80;99.90;;;;;;4919554;29;20036;-77
2022/01/04 06:44:26;;;;;;;32.17;11.80;;;7.80;99.90;;;;;;4918208;29;20092;-78
2022/01/04 06:46:52;;;;;;;36.45;14.38;;;7.90;99.90;;;;;;4933904;29;20396;-78
2022/01/04 06:49:19;;;;;;;35.30;13.20;;;7.80;99.90;;;;;;4933952;29;20071;-78
2022/01/04 06:51:46;;;;;;;38.45;16.25;;;7.90;99.90;;;;;;4934032;29;20106;-79
2022/01/04 06:54:14;;;;;;;36.50;15.98;;;7.90;99.90;;;;;;4918287;29;20445;-77
2022/01/04 06:56:40;;;;;;;38.92;16.58;;;7.90;99.90;;;;;;4933828;29;20095;-76
2022/01/04 06:59:06;;;;;;;35.40;15.57;;;7.90;99.90;;;;;;4933983;29;20086;-77
2022/01/04 07:01:33;;;;;;;42.70;18.65;;;7.90;99.90;;;;;;4919081;29;20040;-79
2022/01/04 07:03:59;;;;;;;43.15;18.65;;;7.90;99.90;;;;;;4917848;29;20213;-79
2022/01/04 07:06:25;;;;;;;39.28;18.92;;;7.90;99.90;;;;;;4917654;29;20107;-78
2022/01/04 07:08:51;;;;;;;41.78;19.13;;;7.90;99.90;;;;;;4917988;29;20048;-79
2022/01/04 07:11:16;;;;;;;41.60;17.65;;;7.90;99.90;;;;;;4933809;29;20048;-77
2022/01/04 07:13:42;;;;;;;41.70;16.95;;;7.90;99.90;;;;;;4917866;29;20095;-79
2022/01/04 07:16:08;;;;;;;43.40;16.52;;;7.90;99.90;;;;;;4917536;29;20048;-76
2022/01/04 07:18:34;;;;;;;39.30;16.58;;;7.90;99.90;;;;;;4933775;29;20044;-76
2022/01/04 07:20:59;;;;;;;36.80;17.35;;;7.90;99.90;;;;;;4917477;29;20128;-77
2022/01/04 07:23:25;;;;;;;36.08;15.57;;;8.00;99.90;;;;;;4918708;29;20071;-79
2022/01/04 07:25:51;;;;;;;36.35;16.90;;;7.90;99.90;;;;;;4918378;29;20040;-79
2022/01/04 07:28:18;;;;;;;40.58;17.73;;;8.00;99.90;;;;;;4916396;29;20052;-78
2022/01/04 07:30:44;;;;;;;46.60;17.73;;;7.90;99.90;;;;;;4932251;29;20048;-79
2022/01/04 07:33:10;;;;;;;43.65;18.67;;;7.90;99.90;;;;;;4932401;29;20052;-79
2022/01/04 07:35:36;;;;;;;46.75;17.95;;;7.90;99.90;;;;;;4932361;29;20515;-79
2022/01/04 07:38:02;;;;;;;49.05;17.85;;;7.90;99.90;;;;;;4932076;29;20488;-78
2022/01/04 07:40:28;;;;;;;48.83;18.02;;;7.90;99.90;;;;;;4932237;29;20048;-78
2022/01/04 07:42:59;;;;;;;40.67;18.40;;;7.90;99.90;;;;;;4932288;29;20106;-78
2022/01/04 07:45:29;;;;;;;46.88;18.05;;;7.90;99.90;;;;;;4900427;29;20078;-77
2022/01/04 07:47:54;;;;;;;41.42;17.58;;;7.90;99.90;;;;;;4932156;29;20044;-78
2022/01/04 07:50:20;;;;;;;46.80;18.10;;;7.90;99.90;;;;;;4917250;29;20036;-79
2022/01/04 07:52:46;;;;;;;45.03;17.80;;;7.90;99.90;;;;;;4915905;29;20044;-78
2022/01/04 07:55:12;;;;;;;45.28;17.17;;;7.90;99.90;;;;;;4917273;29;20040;-78
2022/01/04 07:57:39;;;;;;;45.38;16.75;;;7.90;99.90;;;;;;4917114;29;20044;-78
2022/01/04 08:00:06;;;;;;;42.22;15.10;;;7.90;99.90;;;;;;4931895;29;20060;-79
2022/01/04 08:02:32;;;;;;;43.75;15.85;;;7.90;99.90;;;;;;4915577;29;20055;-78
2022/01/04 08:04:57;;;;;;;37.58;14.48;;;7.90;99.90;;;;;;4915979;29;20036;-78
2022/01/04 08:07:23;;;;;;;45.35;16.45;;;7.90;99.90;;;;;;4916837;29;20535;-78
2022/01/04 08:09:49;;;;;;;47.55;15.63;;;7.90;99.90;;;;;;4915681;29;20048;-77
2022/01/04 08:12:14;;;;;;;43.10;15.77;;;7.90;99.90;;;;;;4915451;29;20040;-79
2022/01/04 08:14:40;;;;;;;36.00;12.25;;;7.90;99.90;;;;;;4931054;29;20083;-78
2022/01/04 08:17:06;;;;;;;50.50;17.83;;;7.90;99.90;;;;;;4914024;29;20048;-79
2022/01/04 08:19:31;;;;;;;24.45;8.25;;;7.90;99.90;;;;;;4914342;29;20044;-78
2022/01/04 08:21:57;;;;;;;12.52;3.65;;;7.80;99.90;;;;;;4914451;29;20191;-78
2022/01/04 08:24:22;;;;;;;9.00;2.90;;;7.70;99.90;;;;;;4914832;29;20036;-79
2022/01/04 08:26:48;;;;;;;7.25;2.30;;;7.50;99.90;;;;;;4916527;29;20047;-79
2022/01/04 08:29:14;;;;;;;8.73;3.28;;;7.30;99.90;;;;;;4915346;29;20462;-79
2022/01/04 08:31:39;;;;;;;11.35;3.53;;;7.20;99.90;;;;;;4915129;29;20382;-79
2022/01/04 08:34:05;;;;;;;20.35;5.97;;;7.10;99.90;;;;;;4915067;29;20755;-80
2022/01/04 08:36:31;;;;;;;14.63;5.97;;;7.10;99.90;;;;;;4914927;29;20052;-79
2022/01/04 08:38:57;;;;;;;19.73;6.95;;;7.00;99.90;;;;;;4915030;29;20568;-79
2022/01/04 08:41:23;;;;;;;20.17;8.77;;;7.00;99.90;;;;;;4916509;29;20040;-79
2022/01/04 08:43:48;;;;;;;28.08;9.82;;;7.10;99.90;;;;;;4915191;29;20119;-78
2022/01/04 08:46:14;;;;;;;29.98;11.38;;;7.10;99.90;;;;;;4914868;29;20047;-79
2022/01/04 08:48:40;;;;;;;27.38;12.45;;;7.10;99.90;;;;;;4915083;29;20040;-78
2022/01/04 08:51:06;;;;;;;36.67;13.50;;;7.20;99.90;;;;;;4930642;29;20047;-78
2022/01/04 08:53:31;;;;;;;36.63;14.48;;;7.20;99.90;;;;;;4930694;29;20040;-78
2022/01/04 08:56:01;;;;;;;44.60;16.52;;;7.30;99.90;;;;;;4914937;29;20176;-78
2022/01/04 08:58:30;;;;;;;47.60;17.40;;;7.30;99.90;;;;;;4914702;29;20044;-78
2022/01/04 09:00:56;;;;;;;46.30;18.33;;;7.30;99.90;;;;;;4914415;29;20048;-78
2022/01/04 09:03:24;;;;;;;56.28;19.20;;;7.30;99.90;;;;;;4914635;29;20052;-78
2022/01/04 09:05:50;;;;;;;53.97;17.80;;;7.30;99.90;;;;;;4914819;29;20388;-78
2022/01/04 09:08:15;;;;;;;52.50;17.80;;;7.40;99.90;;;;;;4930496;29;20139;-78
2022/01/04 09:10:41;;;;;;;56.10;19.35;;;7.40;99.90;;;;;;4914671;29;20047;-78
2022/01/04 09:13:13;;;;;;;56.08;17.67;;;7.40;99.90;;;;;;4914587;29;20473;-79
2022/01/04 09:20:51;;;;;;;46.42;14.98;;;7.50;99.90;;;;;;4914393;29;20096;-78
2022/01/04 09:23:20;;;;;;;48.47;13.50;;;7.50;99.90;;;;;;4914719;29;20150;-78
2022/01/04 09:25:47;;;;;;;50.85;12.68;;;7.50;99.90;;;;;;4914338;29;20515;-78
2022/01/04 09:28:13;;;;;;;48.58;12.25;;;7.50;99.90;;;;;;4930437;29;20050;-77
2022/01/04 09:30:40;;;;;;;44.75;10.88;;;7.50;99.90;;;;;;4917755;29;20040;-78
2022/01/04 09:33:06;;;;;;;46.90;10.70;;;7.50;99.90;;;;;;4918131;29;20052;-78
2022/01/04 09:35:35;;;;;;;38.00;9.50;;;7.50;99.90;;;;;;4902463;29;20059;-78
2022/01/04 09:38:01;;;;;;;42.03;8.60;;;7.50;99.90;;;;;;4902118;29;20503;-79
2022/01/04 09:40:26;;;;;;;35.85;8.55;;;7.50;99.90;;;;;;4917977;29;20040;-79
2022/01/04 09:42:52;;;;;;;27.60;9.60;;;7.50;99.90;;;;;;4918142;29;20407;-79
2022/01/04 09:45:18;;;;;;;26.73;8.50;;;7.50;99.90;;;;;;4918019;29;20036;-79
2022/01/04 09:47:44;;;;;;;19.65;4.88;;;7.40;99.90;;;;;;4917955;29;20040;-79
2022/01/04 09:50:10;;;;;;;19.55;4.70;;;7.30;99.90;;;;;;4917959;29;20050;-79
2022/01/04 09:52:44;;;;;;;19.42;4.38;;;7.20;99.90;;;;;;4917759;29;20419;-79
2022/01/04 09:55:19;;;;;;;12.63;2.47;;;7.10;99.90;;;;;;4917847;29;20055;-79
2022/01/04 09:57:46;;;;;;;12.47;1.70;;;7.00;99.90;;;;;;4917823;29;20044;-79
2022/01/04 10:00:15;;;;;;;11.25;1.63;;;6.90;99.90;;;;;;4917675;29;20094;-79
2022/01/04 10:02:45;;;;;;;12.48;2.50;;;6.80;99.90;;;;;;4917601;29;20040;-80
2022/01/04 10:05:17;;;;;;;13.95;2.42;;;6.70;99.90;;;;;;4918010;29;20404;-80
2022/01/04 10:07:44;;;;;;;12.15;2.35;;;6.70;99.90;;;;;;4917555;29;20063;-79
2022/01/04 10:10:18;;;;;;;8.32;1.98;;;6.60;99.90;;;;;;4917547;29;20048;-82
2022/01/04 10:13:09;;;;;;;11.80;1.30;;;6.60;99.90;;;;;;4917771;29;20092;-80
2022/01/04 10:15:43;;;;;;;11.32;1.70;;;6.50;99.90;;;;;;4910448;29;20196;-80
2022/01/04 10:18:12;;;;;;;8.20;1.65;;;6.50;99.90;;;;;;4917475;29;20040;-79
2022/01/04 10:20:48;;;;;;;11.88;1.90;;;6.50;99.90;;;;;;4917503;29;20130;-79
2022/01/04 10:23:17;;;;;;;7.10;1.77;;;6.50;99.90;;;;;;4917406;29;20068;-79
2022/01/04 10:25:45;;;;;;;9.38;1.92;;;6.50;99.90;;;;;;4901618;29;20052;-80
2022/01/04 10:28:11;;;;;;;6.20;1.27;;;6.50;99.90;;;;;;4917457;29;20048;-80
2022/01/04 10:30:39;;;;;;;6.47;1.83;;;6.50;99.90;;;;;;4917343;29;20491;-80
2022/01/04 10:33:06;;;;;;;6.75;1.60;;;6.50;99.90;;;;;;4917188;29;20055;-79
2022/01/04 10:35:32;;;;;;;5.57;1.20;;;6.50;99.90;;;;;;4917389;29;20052;-81
2022/01/04 10:38:07;;;;;;;6.07;1.50;;;6.50;99.90;;;;;;4901349;29;20047;-80
2022/01/04 10:40:33;;;;;;;11.20;2.40;;;6.50;99.90;;;;;;4900699;29;20056;-80
2022/01/04 10:43:07;;;;;;;10.68;2.30;;;6.40;99.90;;;;;;4916985;29;20043;-80
2022/01/04 10:45:34;;;;;;;9.00;2.63;;;6.40;99.90;;;;;;4918345;29;20040;-80
2022/01/04 10:48:11;;;;;;;6.28;2.13;;;6.40;99.90;;;;;;4916741;29;20047;-79
2022/01/04 10:50:37;;;;;;;11.98;3.17;;;6.30;99.90;;;;;;4901127;29;20051;-80
2022/01/04 10:53:04;;;;;;;9.77;3.05;;;6.30;99.90;;;;;;4916690;29;20052;-79
2022/01/04 10:55:35;;;;;;;15.43;3.45;;;6.30;99.90;;;;;;4916662;29;20059;-80
2022/01/04 10:58:03;;;;;;;10.75;3.10;;;6.30;99.90;;;;;;4916692;29;20040;-80
2022/01/04 11:00:29;;;;;;;4.55;2.13;;;6.30;99.90;;;;;;4916423;29;20048;-80
2022/01/04 11:02:57;;;;;;;8.60;1.77;;;6.30;99.90;;;;;;4917007;29;20498;-80
2022/01/04 11:05:27;;;;;;;6.70;1.58;;;6.20;99.90;;;;;;4916511;29;20047;-81
2022/01/04 11:08:02;;;;;;;3.40;1.13;;;6.10;99.90;;;;;;4916741;29;20136;-79
2022/01/04 11:10:31;;;;;;;6.72;1.00;;;5.90;99.90;;;;;;4916478;29;20477;-80
2022/01/04 11:12:58;;;;;;;5.43;1.15;;;5.80;99.90;;;;;;4916744;29;20450;-80
2022/01/04 11:15:27;;;;;;;4.72;0.90;;;5.80;99.90;;;;;;4916505;29;20043;-79
2022/01/04 11:17:53;;;;;;;3.08;1.08;;;5.70;99.90;;;;;;4916373;29;20508;-80
2022/01/04 11:20:20;;;;;;;7.32;1.10;;;5.70;99.90;;;;;;4916366;29;20079;-80
2022/01/04 11:22:47;;;;;;;5.32;0.70;;;5.60;99.90;;;;;;4916274;29;20051;-81
2022/01/04 11:25:16;;;;;;;4.22;0.90;;;5.60;99.90;;;;;;4916332;29;20047;-81
2022/01/04 11:27:43;;;;;;;5.25;1.30;;;5.60;99.90;;;;;;4916308;29;20088;-80
2022/01/04 11:30:24;;;;;;;4.85;0.70;;;5.70;99.90;;;;;;4916336;29;20036;-80
2022/01/04 11:32:55;;;;;;;6.05;0.88;;;5.70;99.90;;;;;;4916177;29;20124;-81
2022/01/04 11:35:23;;;;;;;3.25;1.02;;;5.60;99.90;;;;;;4900395;29;20051;-79
2022/01/04 11:37:56;;;;;;;5.93;1.10;;;5.60;99.90;;;;;;4916038;29;20519;-81
2022/01/04 11:40:40;;;;;;;7.13;1.05;;;5.50;99.90;;;;;;4916042;29;20048;-80
2022/01/04 11:43:27;;;;;;;2.35;0.55;;;5.40;99.90;;;;;;4916209;29;20084;-80
2022/01/04 11:45:53;;;;;;;6.57;0.80;;;5.30;99.90;;;;;;4915976;29;20040;-80
2022/01/04 11:48:37;;;;;;;5.40;0.70;;;5.30;99.90;;;;;;4916050;29;20382;-79
2022/01/04 11:51:05;;;;;;;8.20;0.60;;;5.30;99.90;;;;;;4900863;29;20075;-80
2022/01/04 11:53:32;;;;;;;5.82;0.77;;;5.20;99.90;;;;;;4916787;29;20048;-80
2022/01/04 11:56:04;;;;;;;3.40;0.85;;;5.20;99.90;;;;;;4916261;29;20048;-79
2022/01/04 11:58:43;;;;;;;6.68;1.02;;;5.30;99.90;;;;;;4915774;29;20123;-79
2022/01/04 12:01:11;;;;;;;10.07;1.20;;;5.30;99.90;;;;;;4915670;29;20508;-80
2022/01/04 12:03:47;;;;;;;12.65;0.98;;;5.40;99.90;;;;;;4915576;29;20071;-80
2022/01/04 12:06:17;;;;;;;3.92;0.80;;;5.50;99.90;;;;;;4915675;29;20040;-79
2022/01/04 12:08:50;;;;;;;4.60;1.00;;;5.60;99.90;;;;;;4899937;29;20497;-81
2022/01/04 12:11:25;;;;;;;7.68;0.77;;;5.50;99.90;;;;;;4915453;29;20055;-81
2022/01/04 12:13:58;;;;;;;4.13;0.80;;;5.60;99.90;;;;;;4899671;29;20136;-81
2022/01/04 12:16:37;;;;;;;5.50;0.82;;;5.50;99.90;;;;;;4899617;29;20095;-81
2022/01/04 12:19:08;;;;;;;3.33;0.70;;;5.50;99.90;;;;;;4915623;29;20341;-81
2022/01/04 12:21:43;;;;;;;8.73;1.10;;;5.50;99.90;;;;;;4899418;29;20040;-81
2022/01/04 12:24:11;;;;;;;6.68;1.63;;;5.50;99.90;;;;;;4915135;29;20048;-81
2022/01/04 12:26:38;;;;;;;5.88;1.63;;;5.50;99.90;;;;;;4915206;29;20060;-81
2022/01/04 12:29:10;;;;;;;6.68;0.88;;;5.60;99.90;;;;;;4915428;29;20035;-80
2022/01/04 12:31:54;;;;;;;7.13;1.30;;;5.60;99.90;;;;;;4914998;29;20048;-80
2022/01/04 12:34:32;;;;;;;7.72;0.85;;;5.60;99.90;;;;;;4916565;29;20051;-80
2022/01/04 12:36:59;;;;;;;7.45;1.17;;;5.50;99.90;;;;;;4914859;29;20062;-81
2022/01/04 12:39:40;;;;;;;5.35;1.00;;;5.40;99.90;;;;;;4915236;29;20423;-81
2022/01/04 12:42:08;;;;;;;4.53;0.85;;;5.40;99.90;;;;;;4914867;29;20131;-81
2022/01/04 12:44:34;;;;;;;6.35;0.70;;;5.40;99.90;;;;;;4915212;29;20433;-81
2022/01/04 12:47:01;;;;;;;4.88;0.80;;;5.40;99.90;;;;;;4914814;29;20047;-81
2022/01/04 12:49:29;;;;;;;11.68;1.77;;;5.40;99.90;;;;;;4916061;29;20044;-81
2022/01/04 12:51:57;;;;;;;7.22;0.90;;;5.30;99.90;;;;;;4914755;29;20051;-81
2022/01/04 12:54:32;;;;;;;6.03;0.90;;;5.30;99.90;;;;;;4914682;29;20119;-81
2022/01/04 12:57:02;;;;;;;9.57;1.20;;;5.40;99.90;;;;;;4914560;29;20051;-81
2022/01/04 12:59:30;;;;;;;8.02;0.88;;;5.40;99.90;;;;;;4914520;29;20131;-81
2022/01/04 13:02:04;;;;;;;7.72;1.17;;;5.40;99.90;;;;;;4914365;29;20139;-81
2022/01/04 13:04:33;;;;;;;6.88;1.30;;;5.40;99.90;;;;;;4898502;29;20040;-81
2022/01/04 13:07:00;;;;;;;7.20;1.23;;;5.40;99.90;;;;;;4914869;29;20099;-80
2022/01/04 13:09:27;;;;;;;11.63;1.98;;;5.30;99.90;;;;;;4914844;29;20048;-80
2022/01/04 13:11:58;;;;;;;12.65;1.20;;;5.40;99.90;;;;;;4914377;29;20509;-80
2022/01/04 13:14:28;;;;;;;9.02;1.00;;;5.30;99.90;;;;;;4914558;29;20076;-81
2022/01/04 13:17:11;;;;;;;12.70;1.33;;;5.30;99.90;;;;;;4914559;29;20047;-80
2022/01/04 13:19:40;;;;;;;12.98;2.10;;;5.30;99.90;;;;;;4914781;29;20763;-79
2022/01/04 13:22:10;;;;;;;16.70;2.10;;;5.20;99.90;;;;;;4914412;29;20051;-81
2022/01/04 13:24:45;;;;;;;6.45;1.38;;;5.20;99.90;;;;;;4914586;29;20116;-80
2022/01/04 13:27:26;;;;;;;13.20;1.98;;;5.20;99.90;;;;;;4914442;29;20107;-80
2022/01/04 13:30:05;;;;;;;17.35;1.67;;;5.20;99.90;;;;;;4914766;29;20048;-80
2022/01/04 13:32:33;;;;;;;9.02;1.30;;;5.20;99.90;;;;;;4914576;29;20056;-79
2022/01/04 13:35:04;;;;;;;10.52;1.35;;;5.30;99.90;;;;;;4914252;29;20400;-80
2022/01/04 13:37:30;;;;;;;12.93;1.70;;;5.20;99.90;;;;;;4914358;29;20481;-80
2022/01/04 13:39:56;;;;;;;7.65;1.30;;;5.20;99.90;;;;;;4915627;29;20512;-80
2022/01/04 13:42:30;;;;;;;8.68;1.00;;;5.20;99.90;;;;;;4914283;29;20048;-80
2022/01/04 13:44:57;;;;;;;10.55;1.25;;;5.30;99.90;;;;;;4915146;29;20209;-79
2022/01/04 13:47:24;;;;;;;9.15;1.42;;;5.50;99.90;;;;;;4914499;29;20048;-79
2022/01/04 13:49:50;;;;;;;7.70;1.23;;;5.90;99.90;;;;;;4899030;29;20401;-80
2022/01/04 13:52:19;;;;;;;8.77;1.50;;;6.20;99.90;;;;;;4914384;29;20131;-80
2022/01/04 13:54:45;;;;;;;12.38;2.10;;;6.30;99.90;;;;;;4915190;29;20136;-79
2022/01/04 13:57:15;;;;;;;6.32;1.02;;;6.50;99.90;;;;;;4915361;29;20106;-80
2022/01/04 13:59:41;;;;;;;7.38;1.20;;;6.50;99.90;;;;;;4914842;29;20055;-80
2022/01/04 14:02:25;;;;;;;4.07;0.68;;;6.40;99.90;;;;;;4914619;29;20036;-80
2022/01/04 14:05:12;;;;;;;5.70;1.17;;;6.30;99.90;;;;;;4898460;29;20036;-80
2022/01/04 14:07:37;;;;;;;17.27;1.85;;;6.10;99.90;;;;;;4914283;29;20052;-80
2022/01/04 14:10:03;;;;;;;10.32;0.98;;;6.00;99.90;;;;;;4914510;29;20067;-80
2022/01/04 14:12:29;;;;;;;6.38;0.93;;;5.80;99.90;;;;;;4914132;29;20126;-80
2022/01/04 14:14:57;;;;;;;6.10;0.98;;;5.70;99.90;;;;;;4914246;29;20103;-80
2022/01/04 14:17:24;;;;;;;7.13;0.90;;;5.60;99.90;;;;;;4901432;29;20036;-80
2022/01/04 14:19:55;;;;;;;6.93;1.05;;;5.50;99.90;;;;;;4917485;29;20052;-80
2022/01/04 14:22:26;;;;;;;8.27;0.98;;;5.40;99.90;;;;;;4917710;29;20044;-79
2022/01/04 14:25:02;;;;;;;6.30;1.10;;;5.40;99.90;;;;;;4917437;29;20083;-80
2022/01/04 14:27:39;;;;;;;6.32;0.90;;;5.30;99.90;;;;;;4917439;29;20131;-79
2022/01/04 14:30:11;;;;;;;8.35;2.17;;;5.30;99.90;;;;;;4917385;29;20055;-80
2022/01/04 14:32:48;;;;;;;6.72;2.00;;;5.20;99.90;;;;;;4917420;29;20520;-79
2022/01/04 14:35:25;;;;;;;9.85;2.38;;;5.10;99.90;;;;;;4917257;29;20123;-80
2022/01/04 14:37:53;;;;;;;9.07;1.60;;;5.10;99.90;;;;;;4917151;29;20048;-79
2022/01/04 14:40:21;;;;;;;6.85;1.60;;;5.00;99.90;;;;;;4917209;29;20111;-80
2022/01/04 14:42:47;;;;;;;12.80;2.10;;;5.00;99.90;;;;;;4917067;29;20499;-81
2022/01/04 14:45:15;;;;;;;8.80;1.92;;;4.90;99.90;;;;;;4901437;29;20036;-81
2022/01/04 14:47:41;;;;;;;11.20;1.85;;;4.90;99.90;;;;;;4917048;29;20485;-80
2022/01/04 14:50:07;;;;;;;11.18;1.85;;;4.80;99.90;;;;;;4917233;29;20048;-80
2022/01/04 14:52:33;;;;;;;9.73;1.58;;;4.80;99.90;;;;;;4916770;29;20497;-79
2022/01/04 14:54:59;;;;;;;8.73;1.15;;;4.80;99.90;;;;;;4932994;29;20051;-79
2022/01/04 14:57:27;;;;;;;10.23;1.80;;;4.80;99.90;;;;;;4916857;29;20044;-81
2022/01/04 14:59:54;;;;;;;10.57;1.90;;;4.80;99.90;;;;;;4916857;29;20153;-80
2022/01/04 15:02:23;;;;;;;8.68;2.00;;;4.80;99.90;;;;;;4916546;29;20501;-80
2022/01/04 15:04:50;;;;;;;10.55;2.20;;;4.80;99.90;;;;;;4917051;29;20539;-81
2022/01/04 15:07:16;;;;;;;11.73;1.70;;;4.70;99.90;;;;;;4900923;29;20475;-80
2022/01/04 15:09:42;;;;;;;5.53;1.58;;;4.70;99.90;;;;;;4916589;29;20055;-80
2022/01/04 15:12:08;;;;;;;9.40;1.65;;;4.70;99.90;;;;;;4916742;29;20048;-80
2022/01/04 15:14:37;;;;;;;10.73;1.10;;;4.70;99.90;;;;;;4916487;29;20046;-80
2022/01/04 15:17:05;;;;;;;11.52;1.40;;;4.70;99.90;;;;;;4916406;29;20063;-80
2022/01/04 15:19:31;;;;;;;12.38;1.38;;;4.70;99.90;;;;;;4916414;29;20140;-80
2022/01/04 15:21:56;;;;;;;8.77;1.92;;;4.70;99.90;;;;;;4916278;29;20061;-79
2022/01/04 15:24:23;;;;;;;9.38;1.42;;;4.70;99.90;;;;;;4916609;29;20036;-80
2022/01/04 15:26:48;;;;;;;12.13;1.65;;;4.60;99.90;;;;;;4916021;29;20044;-79
2022/01/04 15:29:14;;;;;;;7.53;1.15;;;4.60;99.90;;;;;;4916553;29;20043;-81
2022/01/04 15:31:40;;;;;;;12.40;1.20;;;4.60;99.90;;;;;;4916206;29;20076;-80
2022/01/04 15:34:06;;;;;;;8.65;1.42;;;4.50;99.90;;;;;;4915887;29;20040;-80
2022/01/04 15:36:32;;;;;;;10.73;1.95;;;4.50;99.90;;;;;;4900046;29;20171;-80
2022/01/04 15:38:57;;;;;;;11.27;2.45;;;4.50;99.90;;;;;;4915899;29;20124;-80
2022/01/04 15:41:23;;;;;;;14.52;2.90;;;4.50;99.90;;;;;;4915853;29;20548;-79
2022/01/04 15:43:49;;;;;;;11.98;2.50;;;4.50;99.90;;;;;;4915628;29;20043;-79
2022/01/04 15:46:15;;;;;;;15.45;3.40;;;4.40;99.90;;;;;;4915638;29;20036;-79
2022/01/04 15:48:40;;;;;;;19.08;2.70;;;4.40;99.90;;;;;;4915653;29;20044;-80
2022/01/04 15:51:06;;;;;;;13.57;2.10;;;4.40;99.90;;;;;;4899765;29;20044;-80
2022/01/04 15:53:32;;;;;;;9.80;2.45;;;4.30;99.90;;;;;;4915520;29;20044;-81
2022/01/04 15:55:58;;;;;;;11.23;2.83;;;4.30;99.90;;;;;;4915417;29;20048;-80
2022/01/04 15:58:23;;;;;;;8.55;2.10;;;4.30;99.90;;;;;;4915351;29;20040;-80
2022/01/04 16:00:49;;;;;;;12.82;3.13;;;4.20;99.90;;;;;;4915254;29;20048;-80
2022/01/04 16:03:15;;;;;;;13.40;3.35;;;4.20;99.90;;;;;;4915460;29;20048;-81
2022/01/04 16:05:41;;;;;;;10.63;2.83;;;4.20;99.90;;;;;;4915228;29;20486;-81
2022/01/04 16:08:07;;;;;;;12.68;2.92;;;4.20;99.90;;;;;;4916919;29;20091;-80
2022/01/04 16:10:34;;;;;;;19.20;4.13;;;4.20;99.90;;;;;;4917097;29;20143;-80
2022/01/04 16:13:01;;;;;;;11.70;2.70;;;4.20;99.90;;;;;;4918631;29;20079;-80
2022/01/04 16:15:36;;;;;;;9.77;2.42;;;4.30;99.90;;;;;;4923084;29;20055;-78
2022/01/04 16:23:32;;;;;;;14.38;3.08;;;4.30;99.90;;;;;;4916967;29;20082;-80
2022/01/04 16:25:58;;;;;;;10.90;3.00;;;4.30;99.90;;;;;;4916193;29;20083;-80
2022/01/04 16:28:24;;;;;;;10.95;2.90;;;4.30;99.90;;;;;;4916541;29;20079;-80
2022/01/04 16:30:49;;;;;;;15.45;2.28;;;4.30;99.90;;;;;;4916375;29;20044;-80
2022/01/04 16:33:15;;;;;;;17.85;3.70;;;4.30;99.90;;;;;;4916440;29;20493;-79
2022/01/04 16:35:41;;;;;;;14.27;2.50;;;4.30;99.90;;;;;;4914919;29;20107;-79
2022/01/04 16:38:07;;;;;;;9.27;1.50;;;4.30;99.90;;;;;;4916017;29;20123;-79
2022/01/04 16:40:33;;;;;;;8.00;2.50;;;4.30;99.90;;;;;;4914436;29;20150;-79
2022/01/04 16:42:59;;;;;;;10.45;2.33;;;4.30;99.90;;;;;;4915313;29;20433;-79
2022/01/04 16:45:25;;;;;;;15.25;3.28;;;4.30;99.90;;;;;;4914704;29;20048;-79
2022/01/04 16:47:51;;;;;;;10.43;2.28;;;4.30;99.90;;;;;;4914683;29;20127;-79
2022/01/04 16:50:18;;;;;;;10.27;2.45;;;4.30;99.90;;;;;;4914275;29;20083;-79
2022/01/04 16:52:44;;;;;;;8.80;2.55;;;4.30;99.90;;;;;;4914660;29;20052;-79
2022/01/04 16:55:14;;;;;;;9.85;2.97;;;4.30;99.90;;;;;;4915955;29;20168;-80
2022/01/04 16:57:39;;;;;;;9.40;1.95;;;4.20;99.90;;;;;;4915810;29;20040;-79
2022/01/04 17:00:07;;;;;;;10.45;2.22;;;4.20;99.90;;;;;;4914698;29;20515;-79